AIQ4500 VTBS-VTSP
Flight info
| Callsign | AIQ4500 |
|---|---|
| Flight time | N/A |
| Altitude | 36000 |
| Route | VANKO1E VANKO Y8 SAVSA SAVSA1C |
| Aircraft | A21N/M-SDE2E3FGHIRWXY/LB1 |
Departure
| Time | 2026-05-07 07:17 |
|---|---|
| Airport | Suvarnabhumi Airport (VTBS) |
Arrival
| Time | N/A |
|---|---|
| Airport | Phuket International Airport (VTSP) |
| Time | Latitude | Longitude | Altitude | Speed | Heading |
|---|---|---|---|---|---|
| 2026-05-07 07:01 | 13.68839 | 100.75421 | 11 ft | 1 kts | 283° |
| 2026-05-07 07:02 | 13.68835 | 100.75435 | 11 ft | 4 kts | 285° |
| 2026-05-07 07:02 | 13.68827 | 100.75462 | 13 ft | 4 kts | 290° |
| 2026-05-07 07:02 | 13.68816 | 100.75487 | 14 ft | 4 kts | 301° |
| 2026-05-07 07:03 | 13.68800 | 100.75507 | 13 ft | 4 kts | 334° |
| 2026-05-07 07:03 | 13.68787 | 100.75511 | 12 ft | 1 kts | 14° |
| 2026-05-07 07:05 | 13.68792 | 100.75512 | 12 ft | 1 kts | 14° |
| 2026-05-07 07:05 | 13.68794 | 100.75513 | 12 ft | 0 kts | 14° |
| 2026-05-07 07:06 | 13.68803 | 100.75515 | 13 ft | 4 kts | 15° |
| 2026-05-07 07:06 | 13.68843 | 100.75537 | 12 ft | 9 kts | 45° |
| 2026-05-07 07:06 | 13.68844 | 100.75616 | 11 ft | 14 kts | 106° |
| 2026-05-07 07:06 | 13.68784 | 100.75702 | 11 ft | 17 kts | 172° |
| 2026-05-07 07:07 | 13.68657 | 100.75675 | 11 ft | 20 kts | 194° |
| 2026-05-07 07:07 | 13.68510 | 100.75635 | 11 ft | 23 kts | 198° |
| 2026-05-07 07:07 | 13.68489 | 100.75521 | 12 ft | 18 kts | 285° |
| 2026-05-07 07:07 | 13.68520 | 100.75398 | 12 ft | 18 kts | 284° |
| 2026-05-07 07:08 | 13.68550 | 100.75275 | 11 ft | 17 kts | 283° |
| 2026-05-07 07:08 | 13.68577 | 100.75155 | 11 ft | 17 kts | 283° |
| 2026-05-07 07:08 | 13.68606 | 100.75034 | 11 ft | 17 kts | 287° |
| 2026-05-07 07:08 | 13.68640 | 100.74921 | 11 ft | 17 kts | 287° |
| 2026-05-07 07:09 | 13.68671 | 100.74812 | 11 ft | 16 kts | 282° |
| 2026-05-07 07:09 | 13.68695 | 100.74701 | 11 ft | 16 kts | 283° |
| 2026-05-07 07:09 | 13.68723 | 100.74593 | 13 ft | 16 kts | 285° |
| 2026-05-07 07:09 | 13.68752 | 100.74484 | 11 ft | 16 kts | 284° |
| 2026-05-07 07:10 | 13.68757 | 100.74461 | 11 ft | 16 kts | 284° |
| 2026-05-07 07:10 | 13.68774 | 100.74389 | 11 ft | 15 kts | 282° |
| 2026-05-07 07:10 | 13.68801 | 100.74286 | 12 ft | 15 kts | 289° |
| 2026-05-07 07:10 | 13.68870 | 100.74217 | 12 ft | 14 kts | 360° |
| 2026-05-07 07:11 | 13.68964 | 100.74245 | 12 ft | 14 kts | 17° |
| 2026-05-07 07:11 | 13.69059 | 100.74271 | 27 ft | 14 kts | 16° |
| 2026-05-07 07:11 | 13.69155 | 100.74279 | 11 ft | 14 kts | 342° |
| 2026-05-07 07:11 | 13.69219 | 100.74220 | 11 ft | 12 kts | 330° |
| 2026-05-07 07:12 | 13.69296 | 100.74229 | 11 ft | 11 kts | 17° |
| 2026-05-07 07:12 | 13.69373 | 100.74251 | 11 ft | 12 kts | 13° |
| 2026-05-07 07:12 | 13.69453 | 100.74271 | 11 ft | 12 kts | 13° |
| 2026-05-07 07:12 | 13.69536 | 100.74291 | 11 ft | 12 kts | 13° |
| 2026-05-07 07:13 | 13.69620 | 100.74312 | 11 ft | 13 kts | 13° |
| 2026-05-07 07:13 | 13.69708 | 100.74334 | 10 ft | 13 kts | 15° |
| 2026-05-07 07:13 | 13.69796 | 100.74359 | 10 ft | 13 kts | 16° |
| 2026-05-07 07:13 | 13.69885 | 100.74361 | 12 ft | 13 kts | 328° |
| 2026-05-07 07:14 | 13.69920 | 100.74282 | 11 ft | 12 kts | 284° |
| 2026-05-07 07:14 | 13.69942 | 100.74196 | 12 ft | 12 kts | 287° |
| 2026-05-07 07:14 | 13.69963 | 100.74112 | 11 ft | 12 kts | 282° |
| 2026-05-07 07:14 | 13.69982 | 100.74030 | 11 ft | 10 kts | 284° |
| 2026-05-07 07:15 | 13.69991 | 100.73992 | 11 ft | 2 kts | 283° |
| 2026-05-07 07:15 | 13.69996 | 100.73972 | 11 ft | 5 kts | 282° |
| 2026-05-07 07:15 | 13.70003 | 100.73938 | 13 ft | 4 kts | 283° |
| 2026-05-07 07:15 | 13.70009 | 100.73916 | 12 ft | 6 kts | 283° |
| 2026-05-07 07:16 | 13.70001 | 100.73849 | 12 ft | 14 kts | 225° |
| 2026-05-07 07:16 | 13.69850 | 100.73795 | 10 ft | 37 kts | 194° |
| 2026-05-07 07:16 | 13.69415 | 100.73680 | 11 ft | 92 kts | 193° |
| 2026-05-07 07:16 | 13.68607 | 100.73470 | 10 ft | 148 kts | 194° |
| 2026-05-07 07:17 | 13.67499 | 100.73180 | 130 ft | 171 kts | 196° |
| 2026-05-07 07:17 | 13.66403 | 100.72887 | 852 ft | 155 kts | 194° |
| 2026-05-07 07:17 | 13.65307 | 100.72631 | 1235 ft | 168 kts | 192° |
| 2026-05-07 07:17 | 13.64049 | 100.72341 | 1347 ft | 201 kts | 193° |
| 2026-05-07 07:18 | 13.62632 | 100.72007 | 1726 ft | 218 kts | 192° |
| 2026-05-07 07:18 | 13.61064 | 100.71637 | 2027 ft | 243 kts | 193° |
| 2026-05-07 07:18 | 13.59356 | 100.71233 | 2482 ft | 259 kts | 192° |
| 2026-05-07 07:18 | 13.57570 | 100.70810 | 3122 ft | 266 kts | 191° |
| 2026-05-07 07:19 | 13.55775 | 100.70386 | 3807 ft | 272 kts | 191° |
| 2026-05-07 07:19 | 13.53915 | 100.69935 | 4564 ft | 276 kts | 194° |
| 2026-05-07 07:19 | 13.52177 | 100.69111 | 5314 ft | 280 kts | 216° |
| 2026-05-07 07:19 | 13.50751 | 100.67719 | 6028 ft | 286 kts | 227° |
| 2026-05-07 07:20 | 13.49432 | 100.66165 | 6706 ft | 290 kts | 228° |
| 2026-05-07 07:20 | 13.48120 | 100.64582 | 7408 ft | 293 kts | 228° |
| 2026-05-07 07:20 | 13.46811 | 100.63009 | 8110 ft | 297 kts | 228° |
| 2026-05-07 07:20 | 13.45457 | 100.61395 | 8888 ft | 298 kts | 228° |
| 2026-05-07 07:21 | 13.44092 | 100.59776 | 9616 ft | 302 kts | 228° |
| 2026-05-07 07:21 | 13.42716 | 100.58148 | 10278 ft | 305 kts | 228° |
| 2026-05-07 07:21 | 13.42478 | 100.57866 | 10360 ft | 307 kts | 228° |
| 2026-05-07 07:21 | 13.41861 | 100.57139 | 10499 ft | 314 kts | 228° |